Time;durP1;ratioP1;P1;durP2;ratioP2;P2;SDS_P1;SDS_P2;PMS_P1;PMS_P2;Temp;Humidity;BMP_temperature;BMP_pressure;BME280_temperature;BME280_humidity;BME280_pressure;Samples;Min_cycle;Max_cycle;Signal;HPM_P1;HPM_P2
2023/06/19 00:00:54;;;;;;;1.38;1.05;;;20.10;99.90;;;;;;4897920;29;20083;-61
2023/06/19 00:03:19;;;;;;;0.52;0.52;;;20.20;99.90;;;;;;4898014;29;20060;-61
2023/06/19 00:05:45;;;;;;;0.60;0.60;;;20.10;99.90;;;;;;4898161;29;20127;-61
2023/06/19 00:08:11;;;;;;;0.98;0.85;;;20.40;99.90;;;;;;4897787;29;20560;-61
2023/06/19 00:10:36;;;;;;;0.45;0.45;;;20.20;99.90;;;;;;4897694;29;20068;-60
2023/06/19 00:13:02;;;;;;;0.88;0.57;;;20.40;99.90;;;;;;4897777;29;20044;-61
2023/06/19 00:15:29;;;;;;;2.33;1.00;;;20.40;99.90;;;;;;4897864;29;20096;-60
2023/06/19 00:17:59;;;;;;;0.50;0.50;;;20.90;99.90;;;;;;4897969;29;20092;-61
2023/06/19 00:20:25;;;;;;;0.63;0.63;;;20.80;99.90;;;;;;4897718;29;20056;-61
2023/06/19 00:22:51;;;;;;;0.52;0.52;;;20.60;99.90;;;;;;4897612;29;20051;-61
2023/06/19 00:25:20;;;;;;;1.55;1.17;;;20.70;99.90;;;;;;4897452;29;20049;-60
2023/06/19 00:27:47;;;;;;;1.65;0.68;;;20.70;99.90;;;;;;4897664;29;20135;-60
2023/06/19 00:30:13;;;;;;;0.32;0.32;;;20.70;99.90;;;;;;4897578;29;20135;-61
2023/06/19 00:32:46;;;;;;;0.70;0.70;;;20.90;99.90;;;;;;4897471;29;20152;-60
2023/06/19 00:35:14;;;;;;;1.77;0.85;;;20.50;99.90;;;;;;4897781;29;20120;-61
2023/06/19 00:37:39;;;;;;;3.05;0.93;;;21.00;99.90;;;;;;4897325;29;20295;-61
2023/06/19 00:40:10;;;;;;;1.67;1.52;;;20.60;99.90;;;;;;4897105;29;20088;-61
2023/06/19 00:42:35;;;;;;;1.00;0.60;;;20.80;99.90;;;;;;4897317;29;20051;-61
2023/06/19 00:45:01;;;;;;;0.95;0.70;;;20.60;99.90;;;;;;4897238;29;20116;-61
2023/06/19 00:47:27;;;;;;;2.88;0.70;;;20.70;99.90;;;;;;4897153;29;20088;-61
2023/06/19 00:49:52;;;;;;;0.85;0.85;;;20.50;99.90;;;;;;4897174;29;20128;-61
2023/06/19 00:52:18;;;;;;;1.77;0.70;;;20.70;99.90;;;;;;4897040;29;20343;-60
2023/06/19 00:54:44;;;;;;;0.88;0.88;;;20.80;99.90;;;;;;4897447;29;20052;-61
2023/06/19 00:57:10;;;;;;;0.52;0.52;;;20.70;99.90;;;;;;4897106;29;20836;-61
2023/06/19 00:59:36;;;;;;;2.45;0.85;;;20.80;99.90;;;;;;4897055;29;20068;-61
2023/06/19 01:02:02;;;;;;;0.60;0.60;;;20.70;99.90;;;;;;4896942;29;20123;-61
2023/06/19 01:04:28;;;;;;;0.80;0.80;;;20.80;99.90;;;;;;4895915;29;20111;-60
2023/06/19 01:06:57;;;;;;;1.30;1.20;;;20.40;99.90;;;;;;4896772;29;20052;-60
2023/06/19 01:09:30;;;;;;;0.95;0.63;;;20.70;99.90;;;;;;4896968;29;20048;-61
2023/06/19 01:12:10;;;;;;;0.45;0.45;;;21.00;99.90;;;;;;4897142;29;20398;-60
2023/06/19 01:14:43;;;;;;;0.50;0.50;;;20.70;99.90;;;;;;4897159;29;20370;-61
2023/06/19 01:17:09;;;;;;;0.50;0.50;;;20.70;99.90;;;;;;4896772;29;20052;-61
2023/06/19 01:19:35;;;;;;;0.32;0.32;;;20.50;99.90;;;;;;4896597;29;20060;-61
2023/06/19 01:22:04;;;;;;;1.30;1.20;;;20.80;99.90;;;;;;4896847;29;20504;-60
2023/06/19 01:24:29;;;;;;;1.02;0.93;;;20.80;99.90;;;;;;4896720;29;20052;-61
2023/06/19 01:26:55;;;;;;;1.10;1.00;;;20.60;99.90;;;;;;4896636;29;20103;-61
2023/06/19 01:29:21;;;;;;;0.38;0.38;;;21.00;99.90;;;;;;4896876;29;20048;-61
2023/06/19 01:31:50;;;;;;;0.52;0.52;;;20.90;99.90;;;;;;4896502;29;20566;-62
2023/06/19 01:34:19;;;;;;;1.23;1.10;;;20.60;99.90;;;;;;4896443;29;20059;-62
2023/06/19 01:36:48;;;;;;;0.90;0.50;;;20.60;99.90;;;;;;4896690;29;20131;-61
2023/06/19 01:39:15;;;;;;;1.20;1.00;;;20.80;99.90;;;;;;4896554;29;20056;-61
2023/06/19 01:41:42;;;;;;;0.82;0.82;;;20.80;99.90;;;;;;4896603;29;20052;-62
2023/06/19 01:44:08;;;;;;;1.23;0.77;;;20.70;99.90;;;;;;4896458;29;20059;-61
2023/06/19 01:46:34;;;;;;;0.77;0.77;;;20.70;99.90;;;;;;4896434;29;20529;-61
2023/06/19 01:49:00;;;;;;;0.57;0.57;;;20.40;99.90;;;;;;4896595;29;20086;-61
2023/06/19 01:51:25;;;;;;;0.50;0.50;;;20.70;99.90;;;;;;4896329;29;20525;-61
2023/06/19 01:53:51;;;;;;;1.25;1.15;;;20.80;99.90;;;;;;4896521;29;20079;-61
2023/06/19 01:56:17;;;;;;;0.40;0.30;;;20.50;99.90;;;;;;4896401;29;20131;-61
2023/06/19 01:58:42;;;;;;;2.70;2.03;;;20.70;99.90;;;;;;4896291;29;20049;-61
2023/06/19 02:01:08;;;;;;;2.28;1.45;;;20.90;99.90;;;;;;4896240;29;20131;-61
2023/06/19 02:03:34;;;;;;;1.05;0.52;;;20.70;99.90;;;;;;4896287;29;20049;-61
2023/06/19 02:05:59;;;;;;;0.80;0.80;;;20.50;99.90;;;;;;4896423;29;20461;-61
2023/06/19 02:08:25;;;;;;;7.60;1.10;;;20.50;99.90;;;;;;4895380;29;20082;-61
2023/06/19 02:10:51;;;;;;;0.35;0.35;;;20.80;99.90;;;;;;4896378;29;20048;-61
2023/06/19 02:13:16;;;;;;;0.55;0.50;;;20.70;99.90;;;;;;4896260;29;20061;-61
2023/06/19 02:15:42;;;;;;;0.52;0.50;;;20.20;99.90;;;;;;4896103;29;20132;-61
2023/06/19 02:18:08;;;;;;;0.63;0.63;;;20.50;99.90;;;;;;4896359;29;20056;-61
2023/06/19 02:20:34;;;;;;;1.05;0.88;;;20.00;99.90;;;;;;4897530;29;20432;-61
2023/06/19 02:23:00;;;;;;;1.42;1.23;;;20.60;99.90;;;;;;4900036;29;20155;-61
2023/06/19 02:25:25;;;;;;;0.85;0.73;;;20.20;99.90;;;;;;4899924;29;20494;-61
2023/06/19 02:27:51;;;;;;;0.77;0.77;;;20.20;99.90;;;;;;4900008;29;20049;-61
2023/06/19 02:30:17;;;;;;;0.30;0.30;;;20.40;99.90;;;;;;4899740;29;20044;-62
2023/06/19 02:32:42;;;;;;;0.77;0.77;;;20.20;99.90;;;;;;4899458;29;20163;-61
2023/06/19 02:35:10;;;;;;;0.75;0.70;;;20.30;99.90;;;;;;4899675;29;20053;-60
2023/06/19 02:37:36;;;;;;;1.45;1.30;;;20.20;99.90;;;;;;4899881;29;20068;-60
2023/06/19 02:40:04;;;;;;;0.88;0.85;;;20.20;99.90;;;;;;4899499;29;20056;-61
2023/06/19 02:42:30;;;;;;;0.50;0.50;;;20.30;99.90;;;;;;4899635;29;20060;-61
2023/06/19 02:45:02;;;;;;;0.63;0.63;;;20.20;99.90;;;;;;4899206;29;20053;-61
2023/06/19 02:47:31;;;;;;;0.75;0.75;;;20.00;99.90;;;;;;4899635;29;20049;-62
2023/06/19 02:50:01;;;;;;;2.92;0.47;;;20.10;99.90;;;;;;4899521;29;20144;-62
2023/06/19 02:52:27;;;;;;;1.17;0.68;;;20.10;99.90;;;;;;4899364;29;20495;-62
2023/06/19 02:54:53;;;;;;;0.40;0.40;;;20.20;99.90;;;;;;4899047;29;20128;-61
2023/06/19 02:57:19;;;;;;;0.65;0.65;;;20.20;99.90;;;;;;4899018;29;20131;-60
2023/06/19 02:59:45;;;;;;;1.33;0.80;;;20.10;99.90;;;;;;4898904;29;20052;-64
2023/06/19 03:02:11;;;;;;;0.57;0.57;;;20.40;99.90;;;;;;4899056;29;20053;-61
2023/06/19 03:04:37;;;;;;;0.50;0.50;;;20.40;99.90;;;;;;4899029;29;20621;-61
2023/06/19 03:07:03;;;;;;;0.43;0.43;;;20.30;99.90;;;;;;4898800;29;20139;-62
2023/06/19 03:09:28;;;;;;;0.60;0.60;;;20.00;99.90;;;;;;4898960;29;20052;-61
2023/06/19 03:11:54;;;;;;;0.50;0.50;;;20.30;99.90;;;;;;4913446;29;20103;-61
2023/06/19 03:14:20;;;;;;;0.77;0.50;;;20.10;99.90;;;;;;4913627;29;20059;-61
2023/06/19 03:16:46;;;;;;;1.50;1.08;;;20.00;99.90;;;;;;4898985;29;20048;-61
2023/06/19 03:19:12;;;;;;;0.57;0.50;;;19.90;99.90;;;;;;4898883;29;20493;-61
2023/06/19 03:21:38;;;;;;;0.50;0.50;;;19.90;99.90;;;;;;4898864;29;20056;-61
2023/06/19 03:24:04;;;;;;;2.00;0.70;;;20.20;99.90;;;;;;4898995;29;20052;-61
2023/06/19 03:26:30;;;;;;;0.73;0.73;;;20.30;99.90;;;;;;4898651;29;20466;-61
2023/06/19 03:28:55;;;;;;;1.13;1.02;;;20.50;99.90;;;;;;4898532;29;20084;-61
2023/06/19 03:31:21;;;;;;;0.45;0.45;;;20.60;99.90;;;;;;4898396;29;20048;-61
2023/06/19 03:33:47;;;;;;;4.00;1.88;;;20.30;99.90;;;;;;4898440;29;20057;-61
2023/06/19 03:36:13;;;;;;;1.40;0.60;;;20.60;99.90;;;;;;4898550;29;20052;-61
2023/06/19 03:38:38;;;;;;;0.70;0.70;;;20.50;99.90;;;;;;4898640;29;20462;-61
2023/06/19 03:41:04;;;;;;;10.35;0.82;;;20.20;99.90;;;;;;4898269;29;20490;-61
2023/06/19 03:43:29;;;;;;;0.38;0.38;;;20.30;99.90;;;;;;4898149;29;20055;-61
2023/06/19 03:45:55;;;;;;;0.77;0.65;;;20.50;99.90;;;;;;4898407;29;20056;-61
2023/06/19 03:48:21;;;;;;;0.77;0.77;;;20.70;99.90;;;;;;4898275;29;20844;-61
2023/06/19 03:50:47;;;;;;;0.30;0.30;;;20.30;99.90;;;;;;4898413;29;20398;-61
2023/06/19 03:53:12;;;;;;;0.38;0.30;;;20.40;99.90;;;;;;4897901;29;20065;-61
2023/06/19 03:55:38;;;;;;;0.50;0.50;;;20.40;99.90;;;;;;4897968;29;20127;-60
2023/06/19 03:58:04;;;;;;;0.38;0.38;;;20.40;99.90;;;;;;4897858;29;20135;-61
2023/06/19 04:00:29;;;;;;;0.43;0.43;;;19.80;99.90;;;;;;4898093;29;20057;-60
2023/06/19 04:02:56;;;;;;;0.40;0.30;;;20.20;99.90;;;;;;4897715;29;20478;-60
2023/06/19 04:05:22;;;;;;;0.40;0.40;;;20.10;99.90;;;;;;4896867;29;20136;-61
2023/06/19 04:07:47;;;;;;;0.30;0.30;;;20.10;99.90;;;;;;4897848;29;20084;-61
2023/06/19 04:10:13;;;;;;;0.35;0.35;;;20.00;99.90;;;;;;4898027;29;20478;-61
2023/06/19 04:12:40;;;;;;;0.50;0.47;;;20.00;99.90;;;;;;4897548;29;20422;-61
2023/06/19 04:15:07;;;;;;;1.48;1.25;;;19.80;99.90;;;;;;4897912;29;20045;-61
2023/06/19 04:17:32;;;;;;;2.85;0.73;;;20.10;99.90;;;;;;4897858;29;20455;-61
2023/06/19 04:19:58;;;;;;;0.32;0.32;;;20.00;99.90;;;;;;4897940;29;20079;-61
2023/06/19 04:22:24;;;;;;;1.10;1.08;;;19.90;99.90;;;;;;4897882;29;20041;-61
2023/06/19 04:24:49;;;;;;;0.93;0.75;;;19.50;99.90;;;;;;4897681;29;20072;-61
2023/06/19 04:27:15;;;;;;;0.73;0.73;;;19.90;99.90;;;;;;4897462;29;20048;-62
2023/06/19 04:29:41;;;;;;;0.80;0.80;;;19.60;99.90;;;;;;4897660;29;20057;-62
2023/06/19 04:32:11;;;;;;;1.00;0.73;;;19.90;99.90;;;;;;4896138;29;20052;-62
2023/06/19 04:34:38;;;;;;;0.40;0.40;;;19.80;99.90;;;;;;4897558;29;20055;-61
2023/06/19 04:37:05;;;;;;;0.57;0.57;;;19.50;99.90;;;;;;4897372;29;20053;-62
2023/06/19 04:39:30;;;;;;;0.85;0.75;;;19.60;99.90;;;;;;4897223;29;20112;-61
2023/06/19 04:41:56;;;;;;;0.55;0.55;;;19.90;99.90;;;;;;4897204;29;20131;-61
2023/06/19 04:44:22;;;;;;;7.40;0.75;;;19.60;99.90;;;;;;4896605;29;20067;-61
2023/06/19 04:46:47;;;;;;;0.68;0.68;;;19.90;99.90;;;;;;4927494;29;20055;-62
2023/06/19 04:49:13;;;;;;;0.45;0.45;;;19.80;99.90;;;;;;4897301;29;20041;-63
2023/06/19 04:51:40;;;;;;;0.32;0.32;;;19.60;99.90;;;;;;4896938;29;20584;-61
2023/06/19 04:54:06;;;;;;;3.05;1.90;;;19.80;99.90;;;;;;4897166;29;20056;-63
2023/06/19 04:56:32;;;;;;;0.28;0.28;;;19.60;99.90;;;;;;4897054;29;20048;-61
2023/06/19 04:58:59;;;;;;;0.10;0.10;;;19.70;99.90;;;;;;4897181;29;20052;-61
2023/06/19 05:01:29;;;;;;;0.77;0.77;;;19.70;99.90;;;;;;4897433;29;20416;-62
2023/06/19 05:03:56;;;;;;;0.20;0.20;;;19.70;99.90;;;;;;4897270;29;20091;-61
2023/06/19 05:06:24;;;;;;;0.55;0.50;;;19.70;99.90;;;;;;4896932;29;20092;-62
2023/06/19 05:08:50;;;;;;;0.60;0.60;;;19.60;99.90;;;;;;4897073;29;20060;-62
2023/06/19 05:11:16;;;;;;;1.10;0.30;;;19.90;99.90;;;;;;4896964;29;20049;-61
2023/06/19 05:13:42;;;;;;;0.80;0.80;;;20.10;99.90;;;;;;4896985;29;20044;-62
2023/06/19 05:16:08;;;;;;;0.45;0.40;;;19.60;99.90;;;;;;4896942;29;20387;-61
2023/06/19 05:18:33;;;;;;;0.47;0.47;;;19.90;99.90;;;;;;4896770;29;20049;-61
2023/06/19 05:20:59;;;;;;;0.43;0.43;;;20.20;99.90;;;;;;4896707;29;20049;-61
2023/06/19 05:23:25;;;;;;;0.52;0.47;;;19.70;99.90;;;;;;4895618;29;20068;-61
2023/06/19 05:25:50;;;;;;;0.80;0.40;;;20.10;99.90;;;;;;4896850;29;20056;-62
2023/06/19 05:28:16;;;;;;;0.30;0.30;;;20.30;99.90;;;;;;4896685;29;20409;-61
2023/06/19 05:30:42;;;;;;;0.40;0.40;;;20.40;99.90;;;;;;4896653;29;20087;-61
2023/06/19 05:33:07;;;;;;;0.98;0.57;;;20.30;99.90;;;;;;4896564;29;20052;-61
2023/06/19 05:35:33;;;;;;;6.35;1.17;;;20.40;99.90;;;;;;4896418;29;20060;-62
2023/06/19 05:37:59;;;;;;;0.30;0.30;;;20.50;99.90;;;;;;4896523;29;20199;-62
2023/06/19 05:40:24;;;;;;;0.70;0.63;;;20.50;99.90;;;;;;4896935;29;20056;-62
2023/06/19 05:42:50;;;;;;;0.35;0.35;;;20.70;99.90;;;;;;4896840;29;20048;-61
2023/06/19 05:45:16;;;;;;;0.30;0.30;;;20.70;99.90;;;;;;4896566;29;20048;-61
2023/06/19 05:47:41;;;;;;;0.60;0.60;;;20.70;99.90;;;;;;4896226;29;20180;-61
2023/06/19 05:50:08;;;;;;;0.32;0.32;;;20.60;99.90;;;;;;4896301;29;20056;-63
2023/06/19 05:52:33;;;;;;;0.50;0.50;;;20.70;99.90;;;;;;4896261;29;20065;-62
2023/06/19 05:55:00;;;;;;;0.63;0.43;;;20.80;99.90;;;;;;4898219;29;20076;-61
2023/06/19 05:57:26;;;;;;;0.22;0.22;;;20.60;99.90;;;;;;4900268;29;20068;-62
2023/06/19 05:59:52;;;;;;;0.30;0.30;;;20.40;99.90;;;;;;4883615;29;20053;-62
2023/06/19 06:02:19;;;;;;;0.55;0.40;;;20.80;99.90;;;;;;4900179;29;20057;-63
2023/06/19 06:04:45;;;;;;;0.32;0.32;;;20.40;99.90;;;;;;4900145;29;20140;-62
2023/06/19 06:07:11;;;;;;;0.52;0.45;;;20.60;99.90;;;;;;4899926;29;20051;-61
2023/06/19 06:09:37;;;;;;;0.85;0.80;;;20.60;99.90;;;;;;4900119;29;20087;-62
2023/06/19 06:12:04;;;;;;;0.77;0.77;;;20.70;99.90;;;;;;4900190;29;20092;-61
2023/06/19 06:14:29;;;;;;;0.47;0.47;;;20.40;99.90;;;;;;4900185;29;20048;-62
2023/06/19 06:16:55;;;;;;;0.57;0.22;;;20.50;99.90;;;;;;4900034;29;20048;-62
2023/06/19 06:19:22;;;;;;;0.28;0.22;;;22.60;99.90;;;;;;4899159;29;20057;-63
2023/06/19 06:21:49;;;;;;;0.40;0.40;;;20.70;99.90;;;;;;4898968;29;20059;-62
2023/06/19 06:24:14;;;;;;;1.20;0.85;;;20.70;99.90;;;;;;4901307;29;20496;-61
2023/06/19 06:26:41;;;;;;;1.17;1.13;;;20.80;99.90;;;;;;4907498;29;20048;-65
2023/06/19 06:29:07;;;;;;;1.05;0.95;;;21.00;99.90;;;;;;4899426;29;20056;-61
2023/06/19 06:31:33;;;;;;;0.88;0.88;;;20.50;99.90;;;;;;4899845;29;20088;-63
2023/06/19 06:33:59;;;;;;;1.58;0.77;;;20.70;99.90;;;;;;4899553;29;20091;-61
2023/06/19 06:36:25;;;;;;;1.20;0.60;;;20.60;99.90;;;;;;4899427;29;20056;-62
2023/06/19 06:38:51;;;;;;;0.77;0.77;;;20.60;99.90;;;;;;4899634;29;20048;-62
2023/06/19 06:41:16;;;;;;;1.17;1.02;;;20.20;99.90;;;;;;4898882;29;20414;-63
2023/06/19 06:43:42;;;;;;;0.63;0.63;;;20.00;99.90;;;;;;4899067;29;20100;-62
2023/06/19 06:46:10;;;;;;;1.65;0.90;;;20.80;99.90;;;;;;4897647;29;20438;-64
2023/06/19 06:48:36;;;;;;;1.08;1.00;;;20.30;99.90;;;;;;4891439;29;20075;-61
2023/06/19 06:51:02;;;;;;;1.40;1.02;;;20.40;99.90;;;;;;4897865;29;20044;-62
2023/06/19 06:53:28;;;;;;;1.75;1.42;;;20.40;99.90;;;;;;4898640;29;20509;-61
2023/06/19 07:02:16;;;;;;;4.13;2.00;;;21.10;99.90;;;;;;5108494;27;20500;-62
2023/06/19 07:04:42;;;;;;;2.67;1.95;;;20.60;99.90;;;;;;5109398;28;20051;-60
2023/06/19 07:07:08;;;;;;;2.67;1.77;;;20.70;99.90;;;;;;5108855;28;20487;-61
2023/06/19 07:09:34;;;;;;;2.15;1.95;;;20.50;99.90;;;;;;5108568;28;20187;-61
2023/06/19 07:12:04;;;;;;;20.13;3.45;;;20.60;99.90;;;;;;5107381;28;20032;-62
2023/06/19 07:14:30;;;;;;;3.83;2.03;;;20.70;99.90;;;;;;5109163;28;20052;-61
2023/06/19 07:16:56;;;;;;;0.95;0.95;;;20.10;99.90;;;;;;5108049;28;20047;-60
2023/06/19 07:19:21;;;;;;;5.97;2.35;;;20.50;99.90;;;;;;5109022;28;20040;-61
2023/06/19 07:21:50;;;;;;;1.85;1.73;;;20.30;99.90;;;;;;5108638;28;20122;-62
2023/06/19 07:24:16;;;;;;;2.28;2.08;;;20.10;99.90;;;;;;5108298;28;20069;-62
2023/06/19 07:26:41;;;;;;;4.70;3.20;;;20.30;99.90;;;;;;5108587;28;20044;-61
2023/06/19 07:29:07;;;;;;;4.45;3.25;;;20.30;99.90;;;;;;5108489;28;20040;-61
2023/06/19 07:31:33;;;;;;;3.03;1.80;;;20.40;99.90;;;;;;5107968;28;20055;-61
2023/06/19 07:33:58;;;;;;;5.00;3.35;;;20.00;99.90;;;;;;5090793;28;20056;-61
2023/06/19 07:36:24;;;;;;;1.27;1.10;;;20.20;99.90;;;;;;5108555;28;20131;-60
2023/06/19 07:38:50;;;;;;;1.70;1.48;;;19.90;99.90;;;;;;5087649;28;20102;-61
2023/06/19 07:41:15;;;;;;;4.18;2.63;;;20.00;99.90;;;;;;5087897;28;20036;-62
2023/06/19 07:43:41;;;;;;;4.85;2.00;;;19.60;99.90;;;;;;5105477;28;20201;-61
2023/06/19 07:46:07;;;;;;;1.60;1.50;;;19.60;99.90;;;;;;5107082;28;20047;-61
2023/06/19 07:48:32;;;;;;;3.63;2.92;;;20.00;99.90;;;;;;5108377;28;20048;-60
2023/06/19 07:50:58;;;;;;;4.25;2.30;;;19.60;99.90;;;;;;5107099;28;20051;-61
2023/06/19 07:53:23;;;;;;;3.92;1.63;;;19.40;99.90;;;;;;5108384;28;20102;-60
2023/06/19 07:55:49;;;;;;;9.15;1.67;;;19.30;99.90;;;;;;5108457;28;20458;-61
2023/06/19 07:58:15;;;;;;;2.75;1.70;;;19.70;99.90;;;;;;5108632;28;20404;-62
2023/06/19 08:00:40;;;;;;;2.17;1.98;;;19.20;99.90;;;;;;5108359;28;20086;-60
2023/06/19 08:03:06;;;;;;;3.00;2.72;;;19.70;99.90;;;;;;5108599;28;20056;-59
2023/06/19 08:05:32;;;;;;;9.13;1.42;;;19.70;99.90;;;;;;5108860;28;20470;-60
2023/06/19 08:08:01;;;;;;;2.08;1.70;;;19.70;99.90;;;;;;5108393;28;20066;-60
2023/06/19 08:10:27;;;;;;;6.90;2.05;;;19.40;99.90;;;;;;5108198;28;20192;-60
2023/06/19 08:12:53;;;;;;;2.28;1.90;;;19.00;99.90;;;;;;5099094;28;20518;-61
2023/06/19 08:15:18;;;;;;;2.45;0.95;;;19.20;99.90;;;;;;5094663;28;20047;-60
2023/06/19 08:17:44;;;;;;;2.65;1.45;;;19.90;99.90;;;;;;5094603;28;20074;-60
2023/06/19 08:20:10;;;;;;;1.58;1.27;;;19.00;99.90;;;;;;5094337;28;20047;-60
2023/06/19 08:22:39;;;;;;;2.25;2.05;;;19.40;99.90;;;;;;5092819;28;20051;-60
2023/06/19 08:25:05;;;;;;;1.35;1.25;;;19.80;99.90;;;;;;5093549;28;20209;-58
2023/06/19 08:27:31;;;;;;;3.83;1.70;;;19.70;99.90;;;;;;5094206;28;20139;-59
2023/06/19 08:29:57;;;;;;;13.07;3.25;;;18.80;99.90;;;;;;5094111;28;20131;-58
2023/06/19 08:32:22;;;;;;;1.55;1.48;;;19.50;99.90;;;;;;5094102;28;20126;-58
2023/06/19 08:34:48;;;;;;;3.63;0.93;;;18.70;99.90;;;;;;5093535;28;20529;-58
2023/06/19 08:37:14;;;;;;;3.25;2.65;;;19.30;99.90;;;;;;5093878;28;20391;-58
2023/06/19 08:39:39;;;;;;;3.25;1.63;;;19.80;99.90;;;;;;5093718;28;20055;-59
2023/06/19 08:42:08;;;;;;;3.75;3.45;;;18.90;99.90;;;;;;5078717;28;20052;-58
2023/06/19 08:44:37;;;;;;;2.05;1.77;;;19.10;99.90;;;;;;5073419;28;20076;-58
2023/06/19 08:47:03;;;;;;;1.25;0.80;;;19.60;99.90;;;;;;5091519;28;20078;-59
2023/06/19 08:49:31;;;;;;;15.25;4.22;;;19.50;99.90;;;;;;5089334;28;20045;-58
2023/06/19 08:51:56;;;;;;;0.55;0.50;;;18.50;99.90;;;;;;5072976;28;20044;-58
2023/06/19 08:54:22;;;;;;;0.95;0.95;;;19.50;99.90;;;;;;5071747;28;20782;-59
2023/06/19 08:56:48;;;;;;;0.90;0.90;;;19.70;99.90;;;;;;5073584;28;20059;-59
2023/06/19 08:59:17;;;;;;;0.68;0.65;;;19.40;99.90;;;;;;5093426;28;20048;-58
2023/06/19 09:01:54;;;;;;;0.95;0.80;;;19.60;99.90;;;;;;5086964;28;20063;-59
2023/06/19 09:04:28;;;;;;;0.80;0.80;;;19.10;99.90;;;;;;5077461;28;20048;-59
2023/06/19 09:07:03;;;;;;;1.52;1.15;;;19.70;99.90;;;;;;5108405;28;20044;-58
2023/06/19 09:09:29;;;;;;;1.60;1.17;;;19.60;99.90;;;;;;5111778;28;20055;-59
2023/06/19 09:12:10;;;;;;;1.00;0.75;;;20.30;99.90;;;;;;5108529;28;20530;-59
2023/06/19 09:14:37;;;;;;;1.73;1.55;;;19.60;99.90;;;;;;5093135;28;20131;-59
2023/06/19 09:17:04;;;;;;;1.83;1.17;;;20.30;99.90;;;;;;5090834;28;20048;-62
2023/06/19 09:19:30;;;;;;;0.70;0.70;;;19.90;99.90;;;;;;5097077;28;20530;-60
2023/06/19 09:22:03;;;;;;;1.60;1.10;;;19.40;99.90;;;;;;5092447;28;20083;-59
2023/06/19 09:24:40;;;;;;;1.27;0.90;;;19.30;99.90;;;;;;5091292;28;20048;-60
2023/06/19 09:27:13;;;;;;;0.88;0.85;;;19.60;99.90;;;;;;5092145;28;20100;-60
2023/06/19 09:29:43;;;;;;;0.88;0.88;;;19.50;99.90;;;;;;5092168;28;20051;-60
2023/06/19 09:32:23;;;;;;;1.50;1.10;;;19.80;99.90;;;;;;5092624;28;20051;-60
2023/06/19 09:34:51;;;;;;;5.30;2.08;;;19.90;99.90;;;;;;5091601;28;20047;-59
2023/06/19 09:37:23;;;;;;;4.70;1.23;;;19.70;99.90;;;;;;5092329;28;20044;-59
2023/06/19 09:39:57;;;;;;;2.03;1.77;;;19.70;99.90;;;;;;5092187;28;20051;-61
2023/06/19 09:42:33;;;;;;;1.63;1.52;;;20.50;99.90;;;;;;5090878;28;20502;-60
2023/06/19 09:45:04;;;;;;;1.65;1.15;;;20.30;99.90;;;;;;5091160;28;20396;-60
2023/06/19 09:47:35;;;;;;;5.85;1.45;;;20.40;99.90;;;;;;5091302;28;20070;-61
2023/06/19 09:50:01;;;;;;;2.20;1.38;;;20.80;99.90;;;;;;5092599;28;20476;-59
2023/06/19 09:52:27;;;;;;;0.50;0.50;;;21.60;99.90;;;;;;5092594;28;20079;-59
2023/06/19 09:54:54;;;;;;;1.00;0.85;;;21.70;99.90;;;;;;5092675;28;20075;-60
2023/06/19 09:57:21;;;;;;;2.83;2.00;;;21.80;99.90;;;;;;5092730;28;20052;-60
2023/06/19 09:59:57;;;;;;;7.70;2.22;;;21.40;99.90;;;;;;5092984;28;20047;-61
2023/06/19 10:02:26;;;;;;;0.65;0.65;;;21.10;99.90;;;;;;5092644;28;20390;-59
2023/06/19 10:04:56;;;;;;;1.70;1.60;;;20.70;99.90;;;;;;5092371;28;20439;-60
2023/06/19 10:07:23;;;;;;;1.88;0.93;;;20.10;99.90;;;;;;5092649;28;20054;-59
2023/06/19 10:10:04;;;;;;;4.80;0.73;;;20.30;99.90;;;;;;5092676;28;20424;-59
2023/06/19 10:12:38;;;;;;;1.52;1.05;;;20.50;99.90;;;;;;5092581;28;20456;-60
2023/06/19 10:15:26;;;;;;;0.60;0.60;;;20.30;99.90;;;;;;5092441;28;20052;-60
2023/06/19 10:18:05;;;;;;;1.55;1.33;;;20.30;99.90;;;;;;5092522;28;20047;-59
2023/06/19 10:20:32;;;;;;;2.47;1.45;;;20.10;99.90;;;;;;5092155;28;20084;-60
2023/06/19 10:23:01;;;;;;;1.75;1.55;;;19.80;99.90;;;;;;5092061;28;20044;-60
2023/06/19 10:25:31;;;;;;;4.38;1.23;;;20.20;99.90;;;;;;5092082;28;20449;-60
2023/06/19 10:27:57;;;;;;;0.73;0.68;;;20.40;99.90;;;;;;5086899;28;20048;-60
2023/06/19 10:30:23;;;;;;;1.08;1.00;;;20.70;99.90;;;;;;5091735;28;20040;-59
2023/06/19 10:32:49;;;;;;;1.10;1.00;;;20.90;99.90;;;;;;5091424;28;20054;-59
2023/06/19 10:35:17;;;;;;;0.77;0.77;;;20.10;99.90;;;;;;5090721;28;20051;-59
2023/06/19 10:37:44;;;;;;;0.60;0.60;;;20.60;99.90;;;;;;5091365;28;20048;-60
2023/06/19 10:40:12;;;;;;;2.10;1.52;;;20.90;99.90;;;;;;5091252;28;20048;-60
2023/06/19 10:42:39;;;;;;;1.85;1.48;;;21.00;99.90;;;;;;5090456;28;20055;-59
2023/06/19 10:45:06;;;;;;;1.25;1.15;;;21.30;99.90;;;;;;5091456;28;20052;-59
2023/06/19 10:47:33;;;;;;;1.08;0.60;;;21.70;99.90;;;;;;5091264;28;20079;-59
2023/06/19 10:49:59;;;;;;;1.75;1.23;;;21.90;99.90;;;;;;5090694;28;20083;-59
2023/06/19 10:52:24;;;;;;;1.75;1.42;;;22.00;99.90;;;;;;5091182;28;20083;-59
2023/06/19 10:54:54;;;;;;;5.15;0.82;;;22.30;99.90;;;;;;5091265;28;20036;-59
2023/06/19 10:57:27;;;;;;;1.73;1.05;;;22.00;99.90;;;;;;5090234;28;20086;-59
2023/06/19 10:59:53;;;;;;;6.18;1.80;;;21.60;99.90;;;;;;5090980;28;20051;-60
2023/06/19 11:02:19;;;;;;;0.88;0.85;;;21.50;99.90;;;;;;5091018;28;20060;-61
2023/06/19 11:04:45;;;;;;;1.23;0.93;;;21.20;99.90;;;;;;5090201;28;20067;-60
2023/06/19 11:07:12;;;;;;;1.27;1.17;;;21.50;99.90;;;;;;5091565;28;20040;-60
2023/06/19 11:09:37;;;;;;;0.80;0.68;;;21.80;99.90;;;;;;5091617;28;20059;-60
2023/06/19 11:12:06;;;;;;;2.10;1.90;;;22.10;99.90;;;;;;5091889;28;20048;-59
2023/06/19 11:14:31;;;;;;;1.23;1.13;;;21.40;99.90;;;;;;5091806;28;20480;-59
2023/06/19 11:16:57;;;;;;;1.52;1.08;;;21.50;99.90;;;;;;5091716;28;20070;-60
2023/06/19 11:19:30;;;;;;;1.20;0.75;;;21.40;99.90;;;;;;5091216;28;20127;-60
2023/06/19 11:21:57;;;;;;;1.65;1.55;;;21.50;99.90;;;;;;5091210;28;20047;-59
2023/06/19 11:24:23;;;;;;;1.70;0.95;;;21.70;99.90;;;;;;5091120;28;20086;-60
2023/06/19 11:26:50;;;;;;;2.33;0.80;;;21.80;99.90;;;;;;5091455;28;20062;-59
2023/06/19 11:29:24;;;;;;;1.05;0.98;;;22.40;99.90;;;;;;5091821;28;20051;-60
2023/06/19 11:32:03;;;;;;;1.70;1.33;;;22.30;99.90;;;;;;5091480;28;20071;-59
2023/06/19 11:34:36;;;;;;;0.75;0.75;;;22.20;99.90;;;;;;5091471;28;20079;-60
2023/06/19 11:37:11;;;;;;;1.00;1.00;;;22.50;99.90;;;;;;5091101;28;20109;-59
2023/06/19 11:39:37;;;;;;;1.48;1.33;;;22.80;99.90;;;;;;5091545;28;20143;-59
2023/06/19 11:42:03;;;;;;;1.10;0.80;;;23.00;99.90;;;;;;5091206;28;20122;-60
2023/06/19 11:44:29;;;;;;;0.93;0.90;;;23.00;99.90;;;;;;5091298;28;20113;-60
2023/06/19 11:47:01;;;;;;;1.85;1.42;;;23.50;99.90;;;;;;5091552;28;20483;-59
2023/06/19 11:49:28;;;;;;;1.67;1.58;;;22.90;99.90;;;;;;5095038;28;20047;-59
2023/06/19 11:51:53;;;;;;;2.50;1.25;;;23.00;99.90;;;;;;5095400;28;20102;-59
2023/06/19 11:54:20;;;;;;;1.70;1.45;;;22.90;99.90;;;;;;5095458;28;20536;-60
2023/06/19 11:56:47;;;;;;;1.50;1.05;;;22.60;99.90;;;;;;5095077;28;20059;-59
2023/06/19 11:59:14;;;;;;;1.48;1.20;;;22.90;99.90;;;;;;5095042;28;20591;-60
2023/06/19 12:01:40;;;;;;;2.72;1.92;;;22.80;99.90;;;;;;5093265;28;20396;-59
2023/06/19 12:04:06;;;;;;;3.33;0.98;;;22.40;99.90;;;;;;5094695;28;20125;-60
2023/06/19 12:06:32;;;;;;;6.63;1.75;;;22.50;99.90;;;;;;5094954;28;20494;-59
2023/06/19 12:08:58;;;;;;;0.98;0.88;;;23.40;99.90;;;;;;5094921;28;20091;-61
2023/06/19 12:11:24;;;;;;;1.95;1.20;;;23.30;99.90;;;;;;5094789;28;20408;-60
2023/06/19 12:13:53;;;;;;;2.42;2.22;;;23.40;99.90;;;;;;5094654;28;20048;-60
2023/06/19 12:16:18;;;;;;;1.88;1.67;;;23.40;99.90;;;;;;5094449;28;20086;-60
2023/06/19 12:18:44;;;;;;;1.08;0.95;;;23.20;99.90;;;;;;5094826;28;20048;-60
2023/06/19 12:21:10;;;;;;;1.75;1.65;;;23.50;99.90;;;;;;5094406;28;20103;-60
2023/06/19 12:23:35;;;;;;;3.55;1.73;;;23.60;99.90;;;;;;5094546;28;20055;-59
2023/06/19 12:26:01;;;;;;;1.23;1.13;;;23.90;99.90;;;;;;5094185;28;20044;-60
2023/06/19 12:28:27;;;;;;;0.93;0.93;;;23.90;99.90;;;;;;5094074;28;20069;-59
2023/06/19 12:30:53;;;;;;;0.90;0.70;;;23.40;99.90;;;;;;5093914;28;20036;-59
2023/06/19 12:33:25;;;;;;;3.30;2.38;;;23.00;99.90;;;;;;5085520;28;20140;-59
2023/06/19 12:35:51;;;;;;;4.15;1.85;;;23.30;99.90;;;;;;5093359;28;20102;-60
2023/06/19 12:38:18;;;;;;;0.70;0.70;;;23.50;99.90;;;;;;5101060;28;20455;-60
2023/06/19 12:40:43;;;;;;;1.58;0.95;;;24.20;99.90;;;;;;5113742;28;20073;-59
2023/06/19 12:43:09;;;;;;;1.60;1.48;;;23.90;99.90;;;;;;5095836;28;20389;-60
2023/06/19 12:45:35;;;;;;;1.27;1.17;;;24.00;99.90;;;;;;5092836;28;20468;-59
2023/06/19 12:48:01;;;;;;;0.63;0.63;;;24.00;99.90;;;;;;5093006;28;20511;-59
2023/06/19 12:50:26;;;;;;;1.67;1.05;;;24.00;99.90;;;;;;5093456;28;20044;-60